NZAA/AKL METAR and TAF weather

Enter ICAO airport designator
Station Type Date Time Source
NZAA METAR 2020/04/07 16:00 UTC NOAA

NZAA 071600Z AUTO 35007KT 9999 BKN060/// 16/13 Q1011 NOSIG


Station Type Date Time Source
NZAA Decoded METAR 2020/04/07 16:00 UTC NOAA

Auckland Airport, New Zealand (NZAA) 37-01S 174-48E 6M
Apr 07, 2020 - 12:00 PM EDT / 2020.04.07 1600 UTC
Wind: from the N (350 degrees) at 8 MPH (7 KT):0
Visibility: greater than 7 mile(s):0
Sky conditions: mostly cloudy
Temperature: 60 F (16 C)
Dew Point: 55 F (13 C)
Relative Humidity: 82%
Pressure (altimeter): 29.85 in. Hg (1011 hPa)
ob: NZAA 071600Z AUTO 35007KT 9999 BKN060/// 16/13 Q1011 NOSIG
cycle: 16

Station Type Date Time Source
NZAA TAF 2020/04/07 12:27 UTC NOAA

TAF TAF NZAA 071124Z 0712/0812 35005KT 9999 FEW045
FM080000 29010KT 9999 -SHRA FEW025 SCT035
TEMPO 0802/0807 6000 SHRA FEW020TCU
BECMG 0804/0806 22010KT

Example: see airport list